Meteorología y climatología de Navarra
Datos de la estación - Meteo Navarra

Estación de Etxarri-Aranatz GN

Altitud 505 m.


Datos desde el 30/06/2020 hasta el 01/07/2020 en horario solar
Los datos son PROVISIONALES

Anterior Página 1 de 1 Siguiente Descargar: Formato para Excel 2000 o superior   Formato csv   Formato para OpenOffice Calc
Fecha Temperatura Humedad relativa Radiación global Insolación Precipitación Vel. viento 10 m Vel. viento 10 m Dir. viento 10 m
ºC % W/m² s l/m² m/s km/h º
30/06/2020 0:00 15.2 87 0.0 0 0.0 0.5 1.7 292
30/06/2020 0:10 15.3 87 0.0 0 0.0 0.4 1.5 308
30/06/2020 0:20 15.1 87 0.0 0 0.0 0.2 0.6 220
30/06/2020 0:30 15.1 89 0.0 0 0.0 0.6 2.1 137
30/06/2020 0:40 15.0 89 0.0 0 0.0 0.8 3.0 148
30/06/2020 0:50 14.8 90 0.0 0 0.0 0.5 1.8 155
30/06/2020 1:00 14.8 90 0.0 0 0.0 0.2 0.9 352
30/06/2020 1:10 15.0 88 0.0 0 0.0 0.4 1.3 347
30/06/2020 1:20 14.8 88 0.0 0 0.0 0.4 1.5 330
30/06/2020 1:30 14.6 88 0.0 0 0.0 0.3 0.9 296
30/06/2020 1:40 14.5 90 0.0 0 0.0 0.5 1.8 269
30/06/2020 1:50 14.4 90 0.0 0 0.0 0.6 2.0 250
30/06/2020 2:00 14.4 90 0.0 0 0.0 0.7 2.6 270
30/06/2020 2:10 14.6 87 0.0 0 0.0 0.9 3.2 320
30/06/2020 2:20 14.5 89 0.0 0 0.0 0.5 1.7 311
30/06/2020 2:30 14.1 88 0.0 0 0.0 0.4 1.5 273
30/06/2020 2:40 13.2 90 0.0 0 0.0 0.7 2.4 205
30/06/2020 2:50 12.9 91 0.0 0 0.0 0.5 1.8 211
30/06/2020 3:00 12.5 92 0.0 0 0.0 0.6 2.3 238
30/06/2020 3:10 12.4 93 0.0 0 0.0 1.1 3.8 235
30/06/2020 3:20 12.4 94 0.0 0 0.0 1.0 3.6 234
30/06/2020 3:30 12.3 94 0.0 0 0.0 0.2 0.7 241
30/06/2020 3:40 12.2 94 0.0 0 0.0 0.2 0.7 252
30/06/2020 3:50 12.1 95 0.0 0 0.0 0.5 1.9 221
30/06/2020 4:00 11.8 94 0.0 0 0.0 0.5 1.7 238
30/06/2020 4:10 11.8 95 0.0 0 0.0 0.4 1.4 329
30/06/2020 4:20 11.7 95 0.0 0 0.0 0.2 0.9 22
30/06/2020 4:30 11.3 94 0.0 0 0.0 0.5 1.8 170
30/06/2020 4:40 10.8 94 0.0 0 0.0 0.4 1.5 184
30/06/2020 4:50 10.7 95 0.0 0 0.0 0.4 1.3 305
30/06/2020 5:00 11.2 97 8.2 0 0.0 1.2 4.2 331
30/06/2020 5:10 11.0 95 23.8 0 0.0 0.3 1.2 174
30/06/2020 5:20 10.8 95 29.3 0 0.0 0.3 1.0 146
30/06/2020 5:30 10.7 96 35.3 0 0.0 0.3 1.1 181
30/06/2020 5:40 11.0 97 71.1 2 0.0 0.4 1.3 245
30/06/2020 5:50 11.3 96 146.3 488 0.0 1.0 3.7 334
30/06/2020 6:00 11.7 95 191.0 600 0.0 0.5 1.6 324
30/06/2020 6:10 12.1 96 208.0 600 0.0 0.2 0.8 218
30/06/2020 6:20 12.5 95 233.7 600 0.0 0.5 1.7 315
30/06/2020 6:30 12.9 94 265.6 600 0.0 0.3 0.9 237
30/06/2020 6:40 13.3 93 301.6 600 0.0 0.3 0.9 136
30/06/2020 6:50 14.0 93 326.8 600 0.0 0.5 1.7 142
30/06/2020 7:00 14.6 88 352.8 600 0.0 0.3 1.2 221
30/06/2020 7:10 15.2 85 383.2 600 0.0 0.3 1.2 265
30/06/2020 7:20 15.4 83 412.5 600 0.0 0.6 2.2 326
30/06/2020 7:30 15.7 83 445.8 600 0.0 0.6 2.1 234
30/06/2020 7:40 17.1 79 477.4 600 0.0 0.4 1.5 212
30/06/2020 7:50 17.8 75 510.4 600 0.0 0.9 3.4 217
30/06/2020 8:00 18.5 73 543.5 600 0.0 0.8 3.0 225
30/06/2020 8:10 18.7 72 574.9 600 0.0 0.9 3.2 234
30/06/2020 8:20 18.5 71 610.7 600 0.0 0.5 1.7 264
30/06/2020 8:30 19.5 69 629.4 600 0.0 0.9 3.1 144
30/06/2020 8:40 20.4 67 647.0 600 0.0 1.0 3.5 181
30/06/2020 8:50 20.5 64 677.6 600 0.0 0.6 2.3 206
30/06/2020 9:00 20.5 63 706.1 600 0.0 0.9 3.2 233
30/06/2020 9:10 20.9 60 724.2 600 0.0 0.3 1.2 269
30/06/2020 9:20 21.3 60 705.0 556 0.0 0.6 2.1 195
30/06/2020 9:30 22.1 55 771.5 596 0.0 0.7 2.4 27
30/06/2020 9:40 22.5 52 806.0 600 0.0 0.6 2.0 86
30/06/2020 9:50 23.0 52 820.0 600 0.0 0.6 2.2 62
30/06/2020 10:00 23.3 55 838.0 600 0.0 0.9 3.1 72
30/06/2020 10:10 23.5 54 856.0 600 0.0 0.8 2.7 52
30/06/2020 10:20 23.6 59 876.0 600 0.0 1.0 3.6 67
30/06/2020 10:30 24.9 59 893.0 600 0.0 1.1 3.8 68
30/06/2020 10:40 24.5 58 907.0 600 0.0 0.9 3.2 53
30/06/2020 10:50 25.0 60 920.0 600 0.0 1.3 4.6 68
30/06/2020 11:00 24.9 61 928.0 600 0.0 1.5 5.4 56
30/06/2020 11:10 25.5 60 939.0 600 0.0 1.1 4.0 56
30/06/2020 11:20 25.9 61 949.0 600 0.0 1.5 5.3 67
30/06/2020 11:30 26.0 60 956.0 600 0.0 1.0 3.4 64
30/06/2020 11:40 26.6 59 962.0 600 0.0 1.2 4.2 68
30/06/2020 11:50 27.1 62 969.0 600 0.0 1.4 5.2 79
30/06/2020 12:00 27.5 59 971.0 600 0.0 1.2 4.3 62
30/06/2020 12:10 27.1 59 973.0 600 0.0 1.4 5.1 69
30/06/2020 12:20 27.3 60 973.0 600 0.0 1.1 4.0 65
30/06/2020 12:30 27.8 59 970.0 600 0.0 1.1 3.9 68
30/06/2020 12:40 28.1 59 969.0 600 0.0 0.9 3.2 70
30/06/2020 12:50 28.4 56 964.0 600 0.0 1.0 3.7 57
30/06/2020 13:00 28.5 57 956.0 600 0.0 1.1 4.0 65
30/06/2020 13:10 28.3 54 950.0 600 0.0 1.0 3.7 33
30/06/2020 13:20 28.3 55 938.0 600 0.0 0.8 2.7 50
30/06/2020 13:30 28.9 53 926.0 600 0.0 0.9 3.3 54
30/06/2020 13:40 28.7 51 908.0 600 0.0 1.0 3.5 4
30/06/2020 13:50 28.5 50 896.0 600 0.0 1.3 4.6 341
30/06/2020 14:00 29.2 53 881.0 600 0.0 1.1 3.8 166
30/06/2020 14:10 30.0 50 863.0 600 0.0 0.6 2.3 47
30/06/2020 14:20 29.5 49 842.0 600 0.0 1.0 3.7 23
30/06/2020 14:30 29.5 51 825.0 600 0.0 0.5 1.8 56
30/06/2020 14:40 29.9 49 797.8 600 0.0 0.7 2.7 355
30/06/2020 14:50 29.6 50 783.4 600 0.0 0.9 3.2 8
30/06/2020 15:00 29.8 49 758.2 600 0.0 0.6 2.3 36
30/06/2020 15:10 29.8 50 737.3 600 0.0 0.8 2.7 35
30/06/2020 15:20 29.8 51 715.6 600 0.0 1.4 5.0 331
30/06/2020 15:30 29.6 52 691.9 600 0.0 1.3 4.6 321
30/06/2020 15:40 29.7 51 659.5 600 0.0 1.7 6.3 320
30/06/2020 15:50 29.1 53 618.5 592 0.0 1.4 5.1 315
30/06/2020 16:00 28.8 55 518.4 464 0.0 1.4 5.2 301
30/06/2020 16:10 28.8 55 579.3 600 0.0 1.8 6.6 288
30/06/2020 16:20 29.0 55 548.9 600 0.0 1.2 4.4 283
30/06/2020 16:30 28.7 54 550.4 600 0.0 1.4 5.0 300
30/06/2020 16:40 28.3 57 499.4 600 0.0 1.2 4.2 293
30/06/2020 16:50 28.4 55 458.7 600 0.0 1.8 6.3 318
30/06/2020 17:00 28.0 57 457.3 600 0.0 1.3 4.8 304
30/06/2020 17:10 27.9 56 487.5 600 0.0 1.5 5.5 315
30/06/2020 17:20 27.5 57 425.9 600 0.0 1.6 5.7 310
30/06/2020 17:30 27.6 59 189.5 110 0.0 1.2 4.2 301
30/06/2020 17:40 26.6 64 88.0 0 0.0 1.0 3.6 267
30/06/2020 17:50 26.0 65 80.3 0 0.0 0.9 3.3 286
30/06/2020 18:00 25.9 65 285.5 568 0.0 1.2 4.2 248
30/06/2020 18:10 26.4 63 277.4 600 0.0 1.6 5.7 275
30/06/2020 18:20 26.6 63 249.7 600 0.0 2.0 7.0 246
30/06/2020 18:30 26.3 63 214.1 600 0.0 1.8 6.5 258
30/06/2020 18:40 26.3 64 133.8 286 0.0 1.2 4.3 266
30/06/2020 18:50 25.7 67 50.7 0 0.0 0.8 2.9 276
30/06/2020 19:00 25.1 69 33.5 0 0.0 0.9 3.3 291
30/06/2020 19:10 24.7 71 54.7 50 0.0 1.0 3.7 321
30/06/2020 19:20 24.3 73 52.4 590 0.0 1.2 4.2 327
30/06/2020 19:30 24.0 75 42.4 600 0.0 1.0 3.7 339
30/06/2020 19:40 23.4 77 29.4 250 0.0 0.5 1.7 309
30/06/2020 19:50 23.1 77 10.9 0 0.0 1.0 3.7 341
30/06/2020 20:00 23.0 78 0.0 0 0.0 0.3 1.2 320
30/06/2020 20:10 22.5 79 0.0 0 0.0 0.2 0.8 329
30/06/2020 20:20 22.0 82 0.0 0 0.0 0.7 2.5 313
30/06/2020 20:30 22.0 83 0.0 0 0.0 0.9 3.2 317
30/06/2020 20:40 21.8 83 0.0 0 0.0 1.0 3.4 321
30/06/2020 20:50 21.3 83 0.0 0 0.0 0.7 2.6 280
30/06/2020 21:00 21.3 82 0.0 0 0.0 0.9 3.2 302
30/06/2020 21:10 21.2 82 0.0 0 0.0 0.7 2.7 279
30/06/2020 21:20 21.0 83 0.0 0 0.0 0.8 2.8 298
30/06/2020 21:30 20.6 84 0.0 0 0.0 0.9 3.1 290
30/06/2020 21:40 20.6 84 0.0 0 0.0 1.0 3.5 312
30/06/2020 21:50 20.4 86 0.0 0 0.0 1.2 4.2 324
30/06/2020 22:00 20.1 87 0.0 0 0.0 0.6 2.0 310
30/06/2020 22:10 19.8 87 0.0 0 0.0 0.5 1.7 301
30/06/2020 22:20 19.7 88 0.0 0 0.0 0.6 2.3 99
30/06/2020 22:30 19.1 89 0.0 0 0.0 0.8 3.0 173
30/06/2020 22:40 18.8 90 0.0 0 0.0 0.4 1.3 169
30/06/2020 22:50 18.7 91 0.0 0 0.0 0.4 1.3 290
30/06/2020 23:00 18.5 92 0.0 0 0.0 0.8 3.0 292
30/06/2020 23:10 18.3 92 0.0 0 0.0 1.2 4.3 270
30/06/2020 23:20 18.3 93 0.0 0 0.0 1.6 5.8 267
30/06/2020 23:30 18.4 93 0.0 0 0.0 1.4 5.0 275
30/06/2020 23:40 18.3 92 0.0 0 0.0 2.2 7.8 252
30/06/2020 23:50 18.4 92 0.0 0 0.0 2.2 7.8 259
Anterior Página 1 de 1 Siguiente

NOTA: Tipo de datos según el color:
   - Valores diarios o 10 minutos correctos
   - Valores diarios calculados a partir de un número de datos 10 minutos menor que 144 y mayor que 120, o de un número de datos semihorarios menor que 48 y mayor que 40 (caso de las estaciones de INTIA y del Ministerio)
   - Valores diez minutos estimados


Contacto        Enlaces        Aviso legal